PWSweather.com
Personal Weather Stations
Station Observations
WD4JKH
Forsyth, GA 31029

Forsyth, GA 31029

Lat: 33.033225, Lon: -83.927995

Elevation: 709

Station Type: Davis Vantage VUE

High Low Average
Temperature 92.5°F33.6°C 69.4°F20.8°C 81.2°F27.3°C
Dew Point 70.8°F21.6°C 63.8°F17.7°C 67.1°F19.5°C
Winds 5.1 mph 8.2 kmh Calm Calm 1.0 mph SSW1.6 kmh SSW
Wind Gusts 12.0 mph19.3 kmh -- 4.0 mph6.4 kmh
Humidity 88% 40% 64%
Pressure 30.07 in1018.3 mb 29.95 in1014.2 mb -
Precipitation 0.06 in1.5 mm - -
Hour Temp Dew Point Humidity Winds Wind Gusts Pressure Precip Precip Rate Daily Precip Total
12:02 AM 79.4°F26.3°C 67.9°F19.9°C 68% Calm Calm 1.0 mph1.6 kmh 30.03 in1016.9 mb 0.00 in0.0 mm 0.00 in0.0 mm 0.00 in0.0 mm
12:07 AM 79.3°F26.3°C 68.1°F20.1°C 68% 1.0 mph W1.6 kmh W 1.0 mph1.6 kmh 30.04 in1017.3 mb 0.00 in0.0 mm 0.00 in0.0 mm 0.00 in0.0 mm
12:12 AM 79.2°F26.2°C 68.0°F20.0°C 68% Calm Calm 1.0 mph1.6 kmh 30.04 in1017.3 mb 0.00 in0.0 mm 0.00 in0.0 mm 0.00 in0.0 mm
12:17 AM 79.2°F26.2°C 68.0°F20.0°C 68% Calm Calm 1.0 mph1.6 kmh 30.03 in1016.9 mb 0.00 in0.0 mm 0.00 in0.0 mm 0.00 in0.0 mm
12:22 AM 79.1°F26.2°C 67.9°F19.9°C 68% 1.0 mph W1.6 kmh W 1.0 mph1.6 kmh 30.03 in1016.9 mb 0.00 in0.0 mm 0.00 in0.0 mm 0.00 in0.0 mm
12:27 AM 79.1°F26.2°C 67.9°F19.9°C 68% 1.0 mph W1.6 kmh W 1.0 mph1.6 kmh 30.03 in1016.9 mb 0.00 in0.0 mm 0.00 in0.0 mm 0.00 in0.0 mm
12:32 AM 79.0°F26.1°C 67.5°F19.7°C 68% Calm Calm 1.0 mph1.6 kmh 30.03 in1016.9 mb 0.00 in0.0 mm 0.00 in0.0 mm 0.00 in0.0 mm
12:37 AM 78.9°F26.1°C 67.7°F19.8°C 68% Calm Calm 1.0 mph1.6 kmh 30.03 in1016.9 mb 0.00 in0.0 mm 0.00 in0.0 mm 0.00 in0.0 mm
12:42 AM 78.6°F25.9°C 67.8°F19.9°C 69% Calm Calm 1.0 mph1.6 kmh 30.03 in1016.9 mb 0.00 in0.0 mm 0.00 in0.0 mm 0.00 in0.0 mm
12:47 AM 78.5°F25.8°C 67.7°F19.8°C 69% Calm Calm 1.0 mph1.6 kmh 30.03 in1016.9 mb 0.00 in0.0 mm 0.00 in0.0 mm 0.00 in0.0 mm
12:52 AM 78.3°F25.7°C 67.9°F19.9°C 70% Calm Calm -- 30.03 in1016.9 mb 0.00 in0.0 mm 0.00 in0.0 mm 0.00 in0.0 mm
12:57 AM 78.1°F25.6°C 67.7°F19.8°C 70% Calm Calm -- 30.03 in1016.9 mb 0.00 in0.0 mm 0.00 in0.0 mm 0.00 in0.0 mm
01:02 AM 78.0°F25.6°C 67.6°F19.8°C 70% 1.0 mph W1.6 kmh W 1.0 mph1.6 kmh 30.03 in1016.9 mb 0.00 in0.0 mm 0.00 in0.0 mm 0.00 in0.0 mm
01:07 AM 78.0°F25.6°C 67.6°F19.8°C 70% 1.0 mph W1.6 kmh W 1.0 mph1.6 kmh 30.03 in1016.9 mb 0.00 in0.0 mm 0.00 in0.0 mm 0.00 in0.0 mm
01:12 AM 78.1°F25.6°C 67.3°F19.6°C 69% 1.1 mph W1.8 kmh W 2.0 mph3.2 kmh 30.02 in1016.6 mb 0.00 in0.0 mm 0.00 in0.0 mm 0.00 in0.0 mm
01:17 AM 78.3°F25.7°C 66.7°F19.3°C 67% 1.0 mph WNW1.6 kmh WNW 2.0 mph3.2 kmh 30.02 in1016.6 mb 0.00 in0.0 mm 0.00 in0.0 mm 0.00 in0.0 mm
01:22 AM 78.5°F25.8°C 66.4°F19.1°C 66% 1.0 mph WNW1.6 kmh WNW 2.0 mph3.2 kmh 30.02 in1016.6 mb 0.00 in0.0 mm 0.00 in0.0 mm 0.00 in0.0 mm
01:27 AM 78.7°F25.9°C 66.6°F19.2°C 66% 1.2 mph WNW1.9 kmh WNW 2.0 mph3.2 kmh 30.02 in1016.6 mb 0.00 in0.0 mm 0.00 in0.0 mm 0.00 in0.0 mm
01:32 AM 78.6°F25.9°C 66.3°F19.1°C 66% 1.3 mph WNW2.1 kmh WNW 2.0 mph3.2 kmh 30.02 in1016.6 mb 0.00 in0.0 mm 0.00 in0.0 mm 0.00 in0.0 mm
01:37 AM 78.6°F25.9°C 66.3°F19.1°C 66% 1.0 mph W1.6 kmh W 2.0 mph3.2 kmh 30.03 in1016.9 mb 0.00 in0.0 mm 0.00 in0.0 mm 0.00 in0.0 mm
01:42 AM 78.5°F25.8°C 66.0°F18.9°C 65% 1.0 mph W1.6 kmh W 2.0 mph3.2 kmh 30.03 in1016.9 mb 0.00 in0.0 mm 0.00 in0.0 mm 0.00 in0.0 mm
01:47 AM 78.5°F25.8°C 66.0°F18.9°C 65% Calm Calm 2.0 mph3.2 kmh 30.03 in1016.9 mb 0.00 in0.0 mm 0.00 in0.0 mm 0.00 in0.0 mm
01:52 AM 78.5°F25.8°C 65.8°F18.8°C 65% 1.0 mph W1.6 kmh W 2.0 mph3.2 kmh 30.03 in1016.9 mb 0.00 in0.0 mm 0.00 in0.0 mm 0.00 in0.0 mm
01:57 AM 78.3°F25.7°C 66.2°F19.0°C 66% Calm Calm 2.0 mph3.2 kmh 30.03 in1016.9 mb 0.00 in0.0 mm 0.00 in0.0 mm 0.00 in0.0 mm
02:02 AM 78.1°F25.6°C 66.0°F18.9°C 66% 1.0 mph W1.6 kmh W 1.0 mph1.6 kmh 30.03 in1016.9 mb 0.00 in0.0 mm 0.00 in0.0 mm 0.00 in0.0 mm
02:07 AM 78.0°F25.6°C 65.7°F18.7°C 66% 1.0 mph W1.6 kmh W 1.0 mph1.6 kmh 30.03 in1016.9 mb 0.00 in0.0 mm 0.00 in0.0 mm 0.00 in0.0 mm
02:12 AM 78.0°F25.6°C 66.0°F18.9°C 66% 1.0 mph W1.6 kmh W 1.0 mph1.6 kmh 30.02 in1016.6 mb 0.00 in0.0 mm 0.00 in0.0 mm 0.00 in0.0 mm
02:17 AM 78.0°F25.6°C 65.7°F18.7°C 66% 1.1 mph W1.8 kmh W 2.0 mph3.2 kmh 30.02 in1016.6 mb 0.00 in0.0 mm 0.00 in0.0 mm 0.00 in0.0 mm
02:22 AM 77.9°F25.5°C 65.9°F18.8°C 66% 1.0 mph W1.6 kmh W 2.0 mph3.2 kmh 30.02 in1016.6 mb 0.00 in0.0 mm 0.00 in0.0 mm 0.00 in0.0 mm
02:27 AM 77.6°F25.3°C 66.4°F19.1°C 68% 1.1 mph W1.8 kmh W 2.0 mph3.2 kmh 30.02 in1016.6 mb 0.00 in0.0 mm 0.00 in0.0 mm 0.00 in0.0 mm
02:32 AM 77.4°F25.2°C 66.2°F19.0°C 68% 1.1 mph W1.8 kmh W 2.0 mph3.2 kmh 30.02 in1016.6 mb 0.00 in0.0 mm 0.00 in0.0 mm 0.00 in0.0 mm
02:37 AM 77.3°F25.2°C 66.1°F18.9°C 68% 1.0 mph W1.6 kmh W 2.0 mph3.2 kmh 30.02 in1016.6 mb 0.00 in0.0 mm 0.00 in0.0 mm 0.00 in0.0 mm
02:42 AM 77.1°F25.1°C 65.7°F18.7°C 68% Calm Calm 2.0 mph3.2 kmh 30.02 in1016.6 mb 0.00 in0.0 mm 0.00 in0.0 mm 0.00 in0.0 mm
02:47 AM 76.7°F24.8°C 66.4°F19.1°C 70% Calm Calm 2.0 mph3.2 kmh 30.02 in1016.6 mb 0.00 in0.0 mm 0.00 in0.0 mm 0.00 in0.0 mm
02:52 AM 76.1°F24.5°C 66.6°F19.2°C 72% Calm Calm 1.0 mph1.6 kmh 30.02 in1016.6 mb 0.00 in0.0 mm 0.00 in0.0 mm 0.00 in0.0 mm
02:57 AM 75.5°F24.2°C 66.0°F18.9°C 72% Calm Calm -- 30.02 in1016.6 mb 0.00 in0.0 mm 0.00 in0.0 mm 0.00 in0.0 mm
03:02 AM 75.5°F24.2°C 66.0°F18.9°C 72% Calm Calm -- 30.01 in1016.3 mb 0.00 in0.0 mm 0.00 in0.0 mm 0.00 in0.0 mm
03:07 AM 75.5°F24.2°C 66.0°F18.9°C 72% Calm Calm 1.0 mph1.6 kmh 30.01 in1016.3 mb 0.00 in0.0 mm 0.00 in0.0 mm 0.00 in0.0 mm
03:12 AM 75.0°F23.9°C 65.8°F18.8°C 73% 1.0 mph ESE1.6 kmh ESE 1.0 mph1.6 kmh 30.01 in1016.3 mb 0.00 in0.0 mm 0.00 in0.0 mm 0.00 in0.0 mm
03:16 AM 74.4°F23.6°C 66.5°F19.2°C 76% 1.3 mph E2.1 kmh E 2.0 mph3.2 kmh 30.01 in1016.3 mb 0.00 in0.0 mm 0.00 in0.0 mm 0.00 in0.0 mm
03:21 AM 74.1°F23.4°C 66.6°F19.2°C 77% 1.0 mph E1.6 kmh E 2.0 mph3.2 kmh 30.01 in1016.3 mb 0.00 in0.0 mm 0.00 in0.0 mm 0.00 in0.0 mm
03:26 AM 74.0°F23.3°C 66.5°F19.2°C 77% 1.0 mph ESE1.6 kmh ESE 2.0 mph3.2 kmh 30.01 in1016.3 mb 0.00 in0.0 mm 0.00 in0.0 mm 0.00 in0.0 mm
03:31 AM 74.0°F23.3°C 66.1°F18.9°C 76% Calm Calm 2.0 mph3.2 kmh 30.01 in1016.3 mb 0.00 in0.0 mm 0.00 in0.0 mm 0.00 in0.0 mm
03:36 AM 74.0°F23.3°C 66.1°F18.9°C 76% Calm Calm 2.0 mph3.2 kmh 30.00 in1015.9 mb 0.00 in0.0 mm 0.00 in0.0 mm 0.00 in0.0 mm
03:41 AM 74.2°F23.4°C 65.9°F18.8°C 75% Calm Calm 1.0 mph1.6 kmh 30.01 in1016.3 mb 0.00 in0.0 mm 0.00 in0.0 mm 0.00 in0.0 mm
03:46 AM 74.1°F23.4°C 65.4°F18.6°C 74% Calm Calm 1.0 mph1.6 kmh 30.01 in1016.3 mb 0.00 in0.0 mm 0.00 in0.0 mm 0.00 in0.0 mm
03:51 AM 74.3°F23.5°C 65.6°F18.7°C 74% 1.0 mph ESE1.6 kmh ESE 1.0 mph1.6 kmh 30.01 in1016.3 mb 0.00 in0.0 mm 0.00 in0.0 mm 0.00 in0.0 mm
03:56 AM 74.4°F23.6°C 66.3°F19.1°C 76% 1.0 mph W1.6 kmh W 1.0 mph1.6 kmh 30.01 in1016.3 mb 0.00 in0.0 mm 0.00 in0.0 mm 0.00 in0.0 mm
04:01 AM 74.2°F23.4°C 66.3°F19.1°C 76% Calm Calm 1.0 mph1.6 kmh 30.01 in1016.3 mb 0.00 in0.0 mm 0.00 in0.0 mm 0.00 in0.0 mm
04:06 AM 73.9°F23.3°C 66.0°F18.9°C 76% Calm Calm 1.0 mph1.6 kmh 30.01 in1016.3 mb 0.00 in0.0 mm 0.00 in0.0 mm 0.00 in0.0 mm
04:11 AM 73.5°F23.1°C 66.3°F19.1°C 78% 1.0 mph W1.6 kmh W 1.0 mph1.6 kmh 30.01 in1016.3 mb 0.00 in0.0 mm 0.00 in0.0 mm 0.00 in0.0 mm
04:16 AM 73.1°F22.8°C 66.7°F19.3°C 80% 1.8 mph ESE2.9 kmh ESE 2.0 mph3.2 kmh 30.01 in1016.3 mb 0.00 in0.0 mm 0.00 in0.0 mm 0.00 in0.0 mm
04:21 AM 73.7°F23.2°C 66.9°F19.4°C 79% 1.3 mph SE2.1 kmh SE 3.0 mph4.8 kmh 30.01 in1016.3 mb 0.00 in0.0 mm 0.00 in0.0 mm 0.00 in0.0 mm
04:26 AM 73.8°F23.2°C 66.6°F19.2°C 78% Calm Calm 3.0 mph4.8 kmh 30.01 in1016.3 mb 0.00 in0.0 mm 0.00 in0.0 mm 0.00 in0.0 mm
04:31 AM 73.5°F23.1°C 66.3°F19.1°C 78% Calm Calm 3.0 mph4.8 kmh 30.01 in1016.3 mb 0.00 in0.0 mm 0.00 in0.0 mm 0.00 in0.0 mm
04:36 AM 72.9°F22.7°C 66.1°F18.9°C 79% Calm Calm 3.0 mph4.8 kmh 30.01 in1016.3 mb 0.00 in0.0 mm 0.00 in0.0 mm 0.00 in0.0 mm
04:41 AM 72.7°F22.6°C 65.6°F18.7°C 78% Calm Calm 1.0 mph1.6 kmh 30.01 in1016.3 mb 0.00 in0.0 mm 0.00 in0.0 mm 0.00 in0.0 mm
04:46 AM 72.7°F22.6°C 65.6°F18.7°C 78% Calm Calm -- 30.01 in1016.3 mb 0.00 in0.0 mm 0.00 in0.0 mm 0.00 in0.0 mm
04:51 AM 72.6°F22.6°C 65.8°F18.8°C 79% Calm Calm -- 30.01 in1016.3 mb 0.00 in0.0 mm 0.00 in0.0 mm 0.00 in0.0 mm
04:56 AM 72.5°F22.5°C 66.1°F18.9°C 80% Calm Calm -- 30.01 in1016.3 mb 0.00 in0.0 mm 0.00 in0.0 mm 0.00 in0.0 mm
05:01 AM 72.0°F22.2°C 66.2°F19.0°C 82% 3.2 mph E5.1 kmh E 4.0 mph6.4 kmh 30.01 in1016.3 mb 0.00 in0.0 mm 0.00 in0.0 mm 0.00 in0.0 mm
05:06 AM 71.3°F21.8°C 66.2°F19.0°C 84% 1.1 mph SE1.8 kmh SE 4.0 mph6.4 kmh 30.01 in1016.3 mb 0.00 in0.0 mm 0.00 in0.0 mm 0.00 in0.0 mm
05:11 AM 71.1°F21.7°C 66.0°F18.9°C 84% Calm Calm 4.0 mph6.4 kmh 30.02 in1016.6 mb 0.00 in0.0 mm 0.00 in0.0 mm 0.00 in0.0 mm
05:16 AM 70.9°F21.6°C 66.2°F19.0°C 85% 1.3 mph E2.1 kmh E 4.0 mph6.4 kmh 30.02 in1016.6 mb 0.00 in0.0 mm 0.00 in0.0 mm 0.00 in0.0 mm
05:21 AM 70.7°F21.5°C 66.0°F18.9°C 85% Calm Calm 3.0 mph4.8 kmh 30.02 in1016.6 mb 0.00 in0.0 mm 0.00 in0.0 mm 0.00 in0.0 mm
05:26 AM 70.7°F21.5°C 66.0°F18.9°C 85% Calm Calm 3.0 mph4.8 kmh 30.02 in1016.6 mb 0.00 in0.0 mm 0.00 in0.0 mm 0.00 in0.0 mm
05:31 AM 70.8°F21.6°C 66.1°F18.9°C 85% Calm Calm 3.0 mph4.8 kmh 30.02 in1016.6 mb 0.00 in0.0 mm 0.00 in0.0 mm 0.00 in0.0 mm
05:36 AM 71.1°F21.7°C 66.1°F18.9°C 84% Calm Calm 2.0 mph3.2 kmh 30.02 in1016.6 mb 0.00 in0.0 mm 0.00 in0.0 mm 0.00 in0.0 mm
05:41 AM 71.2°F21.8°C 65.8°F18.8°C 83% Calm Calm 2.0 mph3.2 kmh 30.02 in1016.6 mb 0.00 in0.0 mm 0.00 in0.0 mm 0.00 in0.0 mm
05:46 AM 71.2°F21.8°C 65.8°F18.8°C 83% Calm Calm 2.0 mph3.2 kmh 30.02 in1016.6 mb 0.00 in0.0 mm 0.00 in0.0 mm 0.00 in0.0 mm
05:51 AM 71.1°F21.7°C 66.1°F18.9°C 84% Calm Calm 2.0 mph3.2 kmh 30.03 in1016.9 mb 0.00 in0.0 mm 0.00 in0.0 mm 0.00 in0.0 mm
05:56 AM 70.9°F21.6°C 65.9°F18.8°C 84% Calm Calm -- 30.03 in1016.9 mb 0.00 in0.0 mm 0.00 in0.0 mm 0.00 in0.0 mm
06:01 AM 70.6°F21.4°C 65.9°F18.8°C 85% Calm Calm -- 30.03 in1016.9 mb 0.00 in0.0 mm 0.00 in0.0 mm 0.00 in0.0 mm
06:06 AM 70.3°F21.3°C 65.6°F18.7°C 85% Calm Calm -- 30.03 in1016.9 mb 0.00 in0.0 mm 0.00 in0.0 mm 0.00 in0.0 mm
06:11 AM 70.1°F21.2°C 65.7°F18.7°C 86% Calm Calm -- 30.03 in1016.9 mb 0.00 in0.0 mm 0.00 in0.0 mm 0.00 in0.0 mm
06:16 AM 69.9°F21.1°C 65.9°F18.8°C 87% Calm Calm -- 30.03 in1016.9 mb 0.00 in0.0 mm 0.00 in0.0 mm 0.00 in0.0 mm
06:21 AM 69.8°F21.0°C 65.8°F18.8°C 87% Calm Calm -- 30.03 in1016.9 mb 0.00 in0.0 mm 0.00 in0.0 mm 0.00 in0.0 mm
06:26 AM 69.6°F20.9°C 65.6°F18.7°C 87% Calm Calm -- 30.03 in1016.9 mb 0.00 in0.0 mm 0.00 in0.0 mm 0.00 in0.0 mm
06:31 AM 69.5°F20.8°C 65.8°F18.8°C 88% Calm Calm -- 30.03 in1016.9 mb 0.00 in0.0 mm 0.00 in0.0 mm 0.00 in0.0 mm
06:36 AM 69.4°F20.8°C 65.7°F18.7°C 88% Calm Calm -- 30.03 in1016.9 mb 0.00 in0.0 mm 0.00 in0.0 mm 0.00 in0.0 mm
06:41 AM 69.5°F20.8°C 65.8°F18.8°C 88% Calm Calm -- 30.03 in1016.9 mb 0.00 in0.0 mm 0.00 in0.0 mm 0.00 in0.0 mm
06:46 AM 69.6°F20.9°C 65.9°F18.8°C 88% Calm Calm -- 30.03 in1016.9 mb 0.00 in0.0 mm 0.00 in0.0 mm 0.00 in0.0 mm
06:51 AM 69.6°F20.9°C 65.9°F18.8°C 88% Calm Calm -- 30.03 in1016.9 mb 0.00 in0.0 mm 0.00 in0.0 mm 0.00 in0.0 mm
06:56 AM 69.8°F21.0°C 65.8°F18.8°C 87% Calm Calm -- 30.03 in1016.9 mb 0.00 in0.0 mm 0.00 in0.0 mm 0.00 in0.0 mm
07:01 AM 70.2°F21.2°C 66.2°F19.0°C 87% Calm Calm -- 30.03 in1016.9 mb 0.00 in0.0 mm 0.00 in0.0 mm 0.00 in0.0 mm
07:06 AM 70.7°F21.5°C 66.3°F19.1°C 86% Calm Calm -- 30.03 in1016.9 mb 0.00 in0.0 mm 0.00 in0.0 mm 0.00 in0.0 mm
07:11 AM 71.2°F21.8°C 66.2°F19.0°C 84% Calm Calm -- 30.03 in1016.9 mb 0.00 in0.0 mm 0.00 in0.0 mm 0.00 in0.0 mm
07:16 AM 71.7°F22.1°C 66.3°F19.1°C 83% Calm Calm -- 30.03 in1016.9 mb 0.00 in0.0 mm 0.00 in0.0 mm 0.00 in0.0 mm
07:21 AM 72.1°F22.3°C 66.4°F19.1°C 82% Calm Calm -- 30.03 in1016.9 mb 0.00 in0.0 mm 0.00 in0.0 mm 0.00 in0.0 mm
07:26 AM 72.5°F22.5°C 66.4°F19.1°C 81% 1.6 mph SW2.6 kmh SW 3.0 mph4.8 kmh 30.04 in1017.3 mb 0.00 in0.0 mm 0.00 in0.0 mm 0.00 in0.0 mm
07:31 AM 72.8°F22.7°C 66.0°F18.9°C 79% 1.6 mph SW2.6 kmh SW 3.0 mph4.8 kmh 30.04 in1017.3 mb 0.00 in0.0 mm 0.00 in0.0 mm 0.00 in0.0 mm
07:36 AM 73.2°F22.9°C 66.3°F19.1°C 79% 1.3 mph SW2.1 kmh SW 3.0 mph4.8 kmh 30.04 in1017.3 mb 0.00 in0.0 mm 0.00 in0.0 mm 0.00 in0.0 mm
07:41 AM 73.4°F23.0°C 66.1°F18.9°C 78% 1.0 mph SW1.6 kmh SW 3.0 mph4.8 kmh 30.04 in1017.3 mb 0.00 in0.0 mm 0.00 in0.0 mm 0.00 in0.0 mm
07:46 AM 73.7°F23.2°C 66.4°F19.1°C 78% 1.0 mph SW1.6 kmh SW 3.0 mph4.8 kmh 30.04 in1017.3 mb 0.00 in0.0 mm 0.00 in0.0 mm 0.00 in0.0 mm
07:51 AM 73.9°F23.3°C 66.6°F19.2°C 78% 1.1 mph SW1.8 kmh SW 2.0 mph3.2 kmh 30.04 in1017.3 mb 0.00 in0.0 mm 0.00 in0.0 mm 0.00 in0.0 mm
07:56 AM 74.0°F23.3°C 66.8°F19.3°C 78% 1.0 mph SW1.6 kmh SW 2.0 mph3.2 kmh 30.04 in1017.3 mb 0.00 in0.0 mm 0.00 in0.0 mm 0.00 in0.0 mm
08:01 AM 74.2°F23.4°C 67.0°F19.4°C 78% 1.0 mph SW1.6 kmh SW 3.0 mph4.8 kmh 30.05 in1017.6 mb 0.00 in0.0 mm 0.00 in0.0 mm 0.00 in0.0 mm
08:06 AM 74.4°F23.6°C 66.9°F19.4°C 77% 1.0 mph SW1.6 kmh SW 3.0 mph4.8 kmh 30.05 in1017.6 mb 0.00 in0.0 mm 0.00 in0.0 mm 0.00 in0.0 mm
08:11 AM 74.7°F23.7°C 67.1°F19.5°C 77% 1.0 mph SW1.6 kmh SW 4.0 mph6.4 kmh 30.05 in1017.6 mb 0.00 in0.0 mm 0.00 in0.0 mm 0.00 in0.0 mm
08:15 AM 75.0°F23.9°C 67.4°F19.7°C 77% Calm Calm 4.0 mph6.4 kmh 30.05 in1017.6 mb 0.00 in0.0 mm 0.00 in0.0 mm 0.00 in0.0 mm
08:20 AM 75.4°F24.1°C 67.3°F19.6°C 76% Calm Calm 4.0 mph6.4 kmh 30.05 in1017.6 mb 0.00 in0.0 mm 0.00 in0.0 mm 0.00 in0.0 mm
08:25 AM 75.7°F24.3°C 67.4°F19.7°C 75% 1.5 mph SW2.4 kmh SW 4.0 mph6.4 kmh 30.05 in1017.6 mb 0.00 in0.0 mm 0.00 in0.0 mm 0.00 in0.0 mm
08:30 AM 76.2°F24.6°C 68.1°F20.1°C 76% 1.0 mph SW1.6 kmh SW 3.0 mph4.8 kmh 30.06 in1017.9 mb 0.00 in0.0 mm 0.00 in0.0 mm 0.00 in0.0 mm
08:35 AM 76.5°F24.7°C 67.6°F19.8°C 74% 3.0 mph WSW4.8 kmh WSW 3.0 mph4.8 kmh 30.06 in1017.9 mb 0.00 in0.0 mm 0.00 in0.0 mm 0.00 in0.0 mm
08:40 AM 76.7°F24.8°C 67.6°F19.8°C 73% 1.0 mph SW1.6 kmh SW 4.0 mph6.4 kmh 30.06 in1017.9 mb 0.00 in0.0 mm 0.00 in0.0 mm 0.00 in0.0 mm
08:45 AM 77.2°F25.1°C 68.4°F20.2°C 74% 1.0 mph SW1.6 kmh SW 4.0 mph6.4 kmh 30.06 in1017.9 mb 0.00 in0.0 mm 0.00 in0.0 mm 0.00 in0.0 mm
08:50 AM 77.6°F25.3°C 67.7°F19.8°C 71% 1.6 mph SW2.6 kmh SW 4.0 mph6.4 kmh 30.06 in1017.9 mb 0.00 in0.0 mm 0.00 in0.0 mm 0.00 in0.0 mm
08:55 AM 77.6°F25.3°C 68.4°F20.2°C 73% 1.1 mph SW1.8 kmh SW 5.0 mph8.0 kmh 30.06 in1017.9 mb 0.00 in0.0 mm 0.00 in0.0 mm 0.00 in0.0 mm
09:00 AM 78.2°F25.7°C 69.2°F20.7°C 74% 1.0 mph SW1.6 kmh SW 5.0 mph8.0 kmh 30.06 in1017.9 mb 0.00 in0.0 mm 0.00 in0.0 mm 0.00 in0.0 mm
09:05 AM 78.5°F25.8°C 68.9°F20.5°C 72% 1.0 mph SW1.6 kmh SW 5.0 mph8.0 kmh 30.06 in1017.9 mb 0.00 in0.0 mm 0.00 in0.0 mm 0.00 in0.0 mm
09:10 AM 78.8°F26.0°C 69.2°F20.7°C 72% Calm Calm 3.0 mph4.8 kmh 30.07 in1018.3 mb 0.00 in0.0 mm 0.00 in0.0 mm 0.00 in0.0 mm
09:15 AM 79.8°F26.6°C 69.8°F21.0°C 71% Calm Calm 2.0 mph3.2 kmh 30.06 in1017.9 mb 0.00 in0.0 mm 0.00 in0.0 mm 0.00 in0.0 mm
09:20 AM 80.1°F26.7°C 68.8°F20.4°C 68% 1.2 mph SW1.9 kmh SW 3.0 mph4.8 kmh 30.07 in1018.3 mb 0.00 in0.0 mm 0.00 in0.0 mm 0.00 in0.0 mm
09:25 AM 80.5°F26.9°C 69.6°F20.9°C 69% Calm Calm 3.0 mph4.8 kmh 30.06 in1017.9 mb 0.00 in0.0 mm 0.00 in0.0 mm 0.00 in0.0 mm
09:30 AM 81.4°F27.4°C 69.4°F20.8°C 67% 1.0 mph SW1.6 kmh SW 3.0 mph4.8 kmh 30.06 in1017.9 mb 0.00 in0.0 mm 0.00 in0.0 mm 0.00 in0.0 mm
09:35 AM 81.6°F27.6°C 68.7°F20.4°C 65% 1.0 mph SW1.6 kmh SW 3.0 mph4.8 kmh 30.06 in1017.9 mb 0.00 in0.0 mm 0.00 in0.0 mm 0.00 in0.0 mm
09:40 AM 81.6°F27.6°C 68.9°F20.5°C 65% 1.9 mph SW3.1 kmh SW 3.0 mph4.8 kmh 30.06 in1017.9 mb 0.00 in0.0 mm 0.00 in0.0 mm 0.00 in0.0 mm
09:45 AM 82.1°F27.8°C 69.4°F20.8°C 65% Calm Calm 3.0 mph4.8 kmh 30.06 in1017.9 mb 0.00 in0.0 mm 0.00 in0.0 mm 0.00 in0.0 mm
09:50 AM 82.4°F28.0°C 69.7°F20.9°C 65% 1.0 mph WSW1.6 kmh WSW 3.0 mph4.8 kmh 30.06 in1017.9 mb 0.00 in0.0 mm 0.00 in0.0 mm 0.00 in0.0 mm
09:55 AM 82.5°F28.1°C 69.4°F20.8°C 64% Calm Calm 3.0 mph4.8 kmh 30.06 in1017.9 mb 0.00 in0.0 mm 0.00 in0.0 mm 0.00 in0.0 mm
10:00 AM 82.8°F28.2°C 68.4°F20.2°C 62% Calm Calm 4.0 mph6.4 kmh 30.06 in1017.9 mb 0.00 in0.0 mm 0.00 in0.0 mm 0.00 in0.0 mm
10:05 AM 83.9°F28.8°C 69.3°F20.7°C 61% 1.0 mph SE1.6 kmh SE 4.0 mph6.4 kmh 30.06 in1017.9 mb 0.00 in0.0 mm 0.00 in0.0 mm 0.00 in0.0 mm
10:10 AM 84.3°F29.1°C 68.7°F20.4°C 59% 1.0 mph SW1.6 kmh SW 4.0 mph6.4 kmh 30.06 in1017.9 mb 0.00 in0.0 mm 0.00 in0.0 mm 0.00 in0.0 mm
10:15 AM 84.1°F28.9°C 68.0°F20.0°C 58% 1.4 mph SW2.3 kmh SW 2.0 mph3.2 kmh 30.06 in1017.9 mb 0.00 in0.0 mm 0.00 in0.0 mm 0.00 in0.0 mm
10:20 AM 84.0°F28.9°C 69.4°F20.8°C 61% 1.0 mph W1.6 kmh W 2.0 mph3.2 kmh 30.06 in1017.9 mb 0.00 in0.0 mm 0.00 in0.0 mm 0.00 in0.0 mm
10:25 AM 84.0°F28.9°C 69.4°F20.8°C 61% Calm Calm 2.0 mph3.2 kmh 30.06 in1017.9 mb 0.00 in0.0 mm 0.00 in0.0 mm 0.00 in0.0 mm
10:30 AM 84.7°F29.3°C 68.5°F20.3°C 58% 1.0 mph SW1.6 kmh SW 2.0 mph3.2 kmh 30.06 in1017.9 mb 0.00 in0.0 mm 0.00 in0.0 mm 0.00 in0.0 mm
10:35 AM 84.9°F29.4°C 68.0°F20.0°C 57% 1.6 mph W2.6 kmh W 3.0 mph4.8 kmh 30.06 in1017.9 mb 0.00 in0.0 mm 0.00 in0.0 mm 0.00 in0.0 mm
10:40 AM 84.7°F29.3°C 69.5°F20.8°C 60% 1.0 mph SW1.6 kmh SW 3.0 mph4.8 kmh 30.06 in1017.9 mb 0.00 in0.0 mm 0.00 in0.0 mm 0.00 in0.0 mm
10:45 AM 85.1°F29.5°C 69.4°F20.8°C 59% 1.0 mph SW1.6 kmh SW 3.0 mph4.8 kmh 30.06 in1017.9 mb 0.00 in0.0 mm 0.00 in0.0 mm 0.00 in0.0 mm
10:50 AM 85.4°F29.7°C 68.7°F20.4°C 57% 2.5 mph SW4.0 kmh SW 5.0 mph8.0 kmh 30.06 in1017.9 mb 0.00 in0.0 mm 0.00 in0.0 mm 0.00 in0.0 mm
10:55 AM 85.4°F29.7°C 67.4°F19.7°C 55% 2.4 mph SSW3.9 kmh SSW 5.0 mph8.0 kmh 30.06 in1017.9 mb 0.00 in0.0 mm 0.00 in0.0 mm 0.00 in0.0 mm
11:00 AM 85.8°F29.9°C 68.8°F20.4°C 57% 1.4 mph SW2.3 kmh SW 5.0 mph8.0 kmh 30.06 in1017.9 mb 0.00 in0.0 mm 0.00 in0.0 mm 0.00 in0.0 mm
11:06 AM 85.7°F29.8°C 67.7°F19.8°C 55% 1.3 mph SW2.1 kmh SW 5.0 mph8.0 kmh 30.06 in1017.9 mb 0.00 in0.0 mm 0.00 in0.0 mm 0.00 in0.0 mm
11:11 AM 86.1°F30.1°C 67.7°F19.8°C 54% 1.5 mph SW2.4 kmh SW 5.0 mph8.0 kmh 30.06 in1017.9 mb 0.00 in0.0 mm 0.00 in0.0 mm 0.00 in0.0 mm
11:16 AM 86.2°F30.1°C 67.1°F19.5°C 53% 1.5 mph SW2.4 kmh SW 4.0 mph6.4 kmh 30.06 in1017.9 mb 0.00 in0.0 mm 0.00 in0.0 mm 0.00 in0.0 mm
11:21 AM 86.3°F30.2°C 67.4°F19.7°C 53% 2.1 mph WNW3.4 kmh WNW 4.0 mph6.4 kmh 30.06 in1017.9 mb 0.00 in0.0 mm 0.00 in0.0 mm 0.00 in0.0 mm
11:26 AM 86.5°F30.3°C 67.5°F19.7°C 53% 1.7 mph S2.7 kmh S 4.0 mph6.4 kmh 30.06 in1017.9 mb 0.00 in0.0 mm 0.00 in0.0 mm 0.00 in0.0 mm
11:31 AM 87.2°F30.7°C 68.0°F20.0°C 53% 1.4 mph SW2.3 kmh SW 4.0 mph6.4 kmh 30.06 in1017.9 mb 0.00 in0.0 mm 0.00 in0.0 mm 0.00 in0.0 mm
11:36 AM 87.0°F30.6°C 68.0°F20.0°C 53% 1.6 mph WNW2.6 kmh WNW 4.0 mph6.4 kmh 30.06 in1017.9 mb 0.00 in0.0 mm 0.00 in0.0 mm 0.00 in0.0 mm
11:41 AM 87.1°F30.6°C 67.5°F19.7°C 52% 1.1 mph WSW1.8 kmh WSW 3.0 mph4.8 kmh 30.06 in1017.9 mb 0.00 in0.0 mm 0.00 in0.0 mm 0.00 in0.0 mm
11:46 AM 87.4°F30.8°C 66.6°F19.2°C 50% 2.6 mph SW4.2 kmh SW 6.0 mph9.7 kmh 30.06 in1017.9 mb 0.00 in0.0 mm 0.00 in0.0 mm 0.00 in0.0 mm
11:51 AM 87.8°F31.0°C 68.0°F20.0°C 52% 1.8 mph SW2.9 kmh SW 6.0 mph9.7 kmh 30.06 in1017.9 mb 0.00 in0.0 mm 0.00 in0.0 mm 0.00 in0.0 mm
11:56 AM 88.8°F31.6°C 68.3°F20.2°C 51% 1.0 mph WSW1.6 kmh WSW 6.0 mph9.7 kmh 30.05 in1017.6 mb 0.00 in0.0 mm 0.00 in0.0 mm 0.00 in0.0 mm
12:01 PM 89.1°F31.7°C 67.6°F19.8°C 49% 1.3 mph SE2.1 kmh SE 6.0 mph9.7 kmh 30.05 in1017.6 mb 0.00 in0.0 mm 0.00 in0.0 mm 0.00 in0.0 mm
12:06 PM 89.0°F31.7°C 66.9°F19.4°C 48% 3.3 mph SW5.3 kmh SW 5.0 mph8.0 kmh 30.05 in1017.6 mb 0.00 in0.0 mm 0.00 in0.0 mm 0.00 in0.0 mm
12:11 PM 88.9°F31.6°C 66.8°F19.3°C 48% 2.0 mph SE3.2 kmh SE 5.0 mph8.0 kmh 30.05 in1017.6 mb 0.00 in0.0 mm 0.00 in0.0 mm 0.00 in0.0 mm
12:16 PM 88.7°F31.5°C 68.2°F20.1°C 51% 1.5 mph WSW2.4 kmh WSW 5.0 mph8.0 kmh 30.05 in1017.6 mb 0.00 in0.0 mm 0.00 in0.0 mm 0.00 in0.0 mm
12:21 PM 89.1°F31.7°C 67.6°F19.8°C 49% 1.5 mph SE2.4 kmh SE 5.0 mph8.0 kmh 30.05 in1017.6 mb 0.00 in0.0 mm 0.00 in0.0 mm 0.00 in0.0 mm
12:26 PM 88.9°F31.6°C 66.8°F19.3°C 48% 2.3 mph WSW3.7 kmh WSW 7.0 mph11.3 kmh 30.05 in1017.6 mb 0.00 in0.0 mm 0.00 in0.0 mm 0.00 in0.0 mm
12:31 PM 89.3°F31.8°C 66.5°F19.2°C 47% 1.6 mph S2.6 kmh S 7.0 mph11.3 kmh 30.05 in1017.6 mb 0.00 in0.0 mm 0.00 in0.0 mm 0.00 in0.0 mm
12:36 PM 89.5°F31.9°C 67.4°F19.7°C 48% 3.4 mph WSW5.5 kmh WSW 10.0 mph16.1 kmh 30.04 in1017.3 mb 0.00 in0.0 mm 0.00 in0.0 mm 0.00 in0.0 mm
12:41 PM 89.2°F31.8°C 65.8°F18.8°C 46% 3.0 mph WNW4.8 kmh WNW 10.0 mph16.1 kmh 30.04 in1017.3 mb 0.00 in0.0 mm 0.00 in0.0 mm 0.00 in0.0 mm
12:46 PM 89.1°F31.7°C 66.4°F19.1°C 47% 1.0 mph NW1.6 kmh NW 10.0 mph16.1 kmh 30.04 in1017.3 mb 0.00 in0.0 mm 0.00 in0.0 mm 0.00 in0.0 mm
12:51 PM 88.9°F31.6°C 65.4°F18.6°C 46% 3.2 mph NE5.1 kmh NE 10.0 mph16.1 kmh 30.04 in1017.3 mb 0.00 in0.0 mm 0.00 in0.0 mm 0.00 in0.0 mm
12:56 PM 89.0°F31.7°C 66.9°F19.4°C 48% 1.8 mph WSW2.9 kmh WSW 5.0 mph8.0 kmh 30.04 in1017.3 mb 0.00 in0.0 mm 0.00 in0.0 mm 0.00 in0.0 mm
01:01 PM 89.2°F31.8°C 65.2°F18.4°C 45% 3.3 mph SW5.3 kmh SW 5.0 mph8.0 kmh 30.04 in1017.3 mb 0.00 in0.0 mm 0.00 in0.0 mm 0.00 in0.0 mm
01:06 PM 89.2°F31.8°C 65.2°F18.4°C 45% 1.9 mph ENE3.1 kmh ENE 6.0 mph9.7 kmh 30.03 in1016.9 mb 0.00 in0.0 mm 0.00 in0.0 mm 0.00 in0.0 mm
01:11 PM 89.6°F32.0°C 66.8°F19.3°C 47% 1.7 mph NE2.7 kmh NE 6.0 mph9.7 kmh 30.03 in1016.9 mb 0.00 in0.0 mm 0.00 in0.0 mm 0.00 in0.0 mm
01:15 PM 89.5°F31.9°C 66.1°F18.9°C 46% 2.4 mph ENE3.9 kmh ENE 6.0 mph9.7 kmh 30.03 in1016.9 mb 0.00 in0.0 mm 0.00 in0.0 mm 0.00 in0.0 mm
01:20 PM 89.7°F32.1°C 66.9°F19.4°C 47% 1.9 mph ENE3.1 kmh ENE 5.0 mph8.0 kmh 30.03 in1016.9 mb 0.00 in0.0 mm 0.00 in0.0 mm 0.00 in0.0 mm
01:25 PM 90.0°F32.2°C 66.4°F19.1°C 46% 2.3 mph W3.7 kmh W 5.0 mph8.0 kmh 30.03 in1016.9 mb 0.00 in0.0 mm 0.00 in0.0 mm 0.00 in0.0 mm
01:30 PM 89.5°F31.9°C 65.4°F18.6°C 45% 1.4 mph W2.3 kmh W 5.0 mph8.0 kmh 30.03 in1016.9 mb 0.00 in0.0 mm 0.00 in0.0 mm 0.00 in0.0 mm
01:35 PM 89.9°F32.2°C 67.1°F19.5°C 47% 2.3 mph WSW3.7 kmh WSW 5.0 mph8.0 kmh 30.03 in1016.9 mb 0.00 in0.0 mm 0.00 in0.0 mm 0.00 in0.0 mm
01:40 PM 90.4°F32.4°C 67.4°F19.7°C 47% 2.4 mph WSW3.9 kmh WSW 5.0 mph8.0 kmh 30.03 in1016.9 mb 0.00 in0.0 mm 0.00 in0.0 mm 0.00 in0.0 mm
01:45 PM 91.1°F32.8°C 64.8°F18.2°C 42% 1.9 mph SW3.1 kmh SW 5.0 mph8.0 kmh 30.03 in1016.9 mb 0.00 in0.0 mm 0.00 in0.0 mm 0.00 in0.0 mm
01:50 PM 91.5°F33.1°C 66.6°F19.2°C 44% 1.2 mph WSW1.9 kmh WSW 5.0 mph8.0 kmh 30.03 in1016.9 mb 0.00 in0.0 mm 0.00 in0.0 mm 0.00 in0.0 mm
01:55 PM 91.4°F33.0°C 67.2°F19.6°C 45% 1.9 mph SSW3.1 kmh SSW 5.0 mph8.0 kmh 30.03 in1016.9 mb 0.00 in0.0 mm 0.00 in0.0 mm 0.00 in0.0 mm
02:00 PM 90.4°F32.4°C 66.3°F19.1°C 45% 2.2 mph SW3.5 kmh SW 6.0 mph9.7 kmh 30.02 in1016.6 mb 0.00 in0.0 mm 0.00 in0.0 mm 0.00 in0.0 mm
02:05 PM 90.6°F32.6°C 66.3°F19.1°C 45% 2.7 mph SW4.3 kmh SW 6.0 mph9.7 kmh 30.02 in1016.6 mb 0.00 in0.0 mm 0.00 in0.0 mm 0.00 in0.0 mm
02:10 PM 90.8°F32.7°C 67.3°F19.6°C 46% 1.9 mph SW3.1 kmh SW 6.0 mph9.7 kmh 30.02 in1016.6 mb 0.00 in0.0 mm 0.00 in0.0 mm 0.00 in0.0 mm
02:15 PM 91.1°F32.8°C 66.9°F19.4°C 45% 1.0 mph WSW1.6 kmh WSW 6.0 mph9.7 kmh 30.02 in1016.6 mb 0.00 in0.0 mm 0.00 in0.0 mm 0.00 in0.0 mm
02:20 PM 91.4°F33.0°C 65.8°F18.8°C 43% 1.0 mph W1.6 kmh W 6.0 mph9.7 kmh 30.02 in1016.6 mb 0.00 in0.0 mm 0.00 in0.0 mm 0.00 in0.0 mm
02:25 PM 91.5°F33.1°C 65.2°F18.4°C 42% 2.3 mph WSW3.7 kmh WSW 6.0 mph9.7 kmh 30.01 in1016.3 mb 0.00 in0.0 mm 0.00 in0.0 mm 0.00 in0.0 mm
02:30 PM 91.2°F32.9°C 66.3°F19.1°C 44% 1.0 mph NNW1.6 kmh NNW 3.0 mph4.8 kmh 30.01 in1016.3 mb 0.00 in0.0 mm 0.00 in0.0 mm 0.00 in0.0 mm
02:35 PM 91.1°F32.8°C 65.5°F18.6°C 43% 1.3 mph SE2.1 kmh SE 3.0 mph4.8 kmh 30.01 in1016.3 mb 0.00 in0.0 mm 0.00 in0.0 mm 0.00 in0.0 mm
02:40 PM 91.5°F33.1°C 63.8°F17.7°C 40% 1.5 mph S2.4 kmh S 3.0 mph4.8 kmh 30.01 in1016.3 mb 0.00 in0.0 mm 0.00 in0.0 mm 0.00 in0.0 mm
02:45 PM 91.8°F33.2°C 64.8°F18.2°C 41% 1.5 mph SE2.4 kmh SE 3.0 mph4.8 kmh 30.01 in1016.3 mb 0.00 in0.0 mm 0.00 in0.0 mm 0.00 in0.0 mm
02:50 PM 92.0°F33.3°C 64.9°F18.3°C 41% 1.3 mph SE2.1 kmh SE 3.0 mph4.8 kmh 30.00 in1015.9 mb 0.00 in0.0 mm 0.00 in0.0 mm 0.00 in0.0 mm
02:55 PM 92.5°F33.6°C 66.1°F18.9°C 42% 2.0 mph SW3.2 kmh SW 5.0 mph8.0 kmh 30.00 in1015.9 mb 0.00 in0.0 mm 0.00 in0.0 mm 0.00 in0.0 mm
03:00 PM 92.5°F33.6°C 66.1°F18.9°C 42% 1.4 mph SW2.3 kmh SW 6.0 mph9.7 kmh 30.00 in1015.9 mb 0.00 in0.0 mm 0.00 in0.0 mm 0.00 in0.0 mm
03:05 PM 92.4°F33.6°C 65.3°F18.5°C 41% 2.1 mph SE3.4 kmh SE 6.0 mph9.7 kmh 30.00 in1015.9 mb 0.00 in0.0 mm 0.00 in0.0 mm 0.00 in0.0 mm
03:10 PM 92.4°F33.6°C 64.6°F18.1°C 40% 4.1 mph ESE6.6 kmh ESE 11.0 mph17.7 kmh 30.00 in1015.9 mb 0.00 in0.0 mm 0.00 in0.0 mm 0.00 in0.0 mm
03:15 PM 91.4°F33.0°C 65.8°F18.8°C 43% 1.0 mph SE1.6 kmh SE 11.0 mph17.7 kmh 29.99 in1015.6 mb 0.00 in0.0 mm 0.00 in0.0 mm 0.00 in0.0 mm
03:20 PM 90.8°F32.7°C 65.9°F18.8°C 44% 1.5 mph SE2.4 kmh SE 11.0 mph17.7 kmh 29.99 in1015.6 mb 0.00 in0.0 mm 0.00 in0.0 mm 0.00 in0.0 mm
03:25 PM 90.3°F32.4°C 65.5°F18.6°C 44% Calm Calm 11.0 mph17.7 kmh 29.99 in1015.6 mb 0.00 in0.0 mm 0.00 in0.0 mm 0.00 in0.0 mm
03:30 PM 90.4°F32.4°C 64.9°F18.3°C 43% 1.0 mph SE1.6 kmh SE 4.0 mph6.4 kmh 29.99 in1015.6 mb 0.00 in0.0 mm 0.00 in0.0 mm 0.00 in0.0 mm
03:35 PM 90.7°F32.6°C 65.9°F18.8°C 44% 1.5 mph SE2.4 kmh SE 4.0 mph6.4 kmh 29.99 in1015.6 mb 0.00 in0.0 mm 0.00 in0.0 mm 0.00 in0.0 mm
03:40 PM 90.8°F32.7°C 65.9°F18.8°C 44% 1.0 mph ESE1.6 kmh ESE 4.0 mph6.4 kmh 29.98 in1015.2 mb 0.00 in0.0 mm 0.00 in0.0 mm 0.00 in0.0 mm
03:45 PM 90.7°F32.6°C 65.2°F18.4°C 43% 1.8 mph SW2.9 kmh SW 4.0 mph6.4 kmh 29.98 in1015.2 mb 0.00 in0.0 mm 0.00 in0.0 mm 0.00 in0.0 mm
03:50 PM 90.5°F32.5°C 65.0°F18.3°C 43% 1.0 mph WSW1.6 kmh WSW 4.0 mph6.4 kmh 29.98 in1015.2 mb 0.00 in0.0 mm 0.00 in0.0 mm 0.00 in0.0 mm
03:55 PM 90.8°F32.7°C 65.9°F18.8°C 44% 1.0 mph NNW1.6 kmh NNW 4.0 mph6.4 kmh 29.98 in1015.2 mb 0.00 in0.0 mm 0.00 in0.0 mm 0.00 in0.0 mm
04:00 PM 90.4°F32.4°C 64.9°F18.3°C 43% 1.8 mph NE2.9 kmh NE 3.0 mph4.8 kmh 29.98 in1015.2 mb 0.00 in0.0 mm 0.00 in0.0 mm 0.00 in0.0 mm
04:05 PM 90.4°F32.4°C 64.9°F18.3°C 43% 1.0 mph NE1.6 kmh NE 2.0 mph3.2 kmh 29.98 in1015.2 mb 0.00 in0.0 mm 0.00 in0.0 mm 0.00 in0.0 mm
04:10 PM 90.6°F32.6°C 67.7°F19.8°C 47% Calm Calm 2.0 mph3.2 kmh 29.98 in1015.2 mb 0.00 in0.0 mm 0.00 in0.0 mm 0.00 in0.0 mm
04:15 PM 90.3°F32.4°C 64.8°F18.2°C 43% 1.0 mph WNW1.6 kmh WNW 2.0 mph3.2 kmh 29.97 in1014.9 mb 0.00 in0.0 mm 0.00 in0.0 mm 0.00 in0.0 mm
04:20 PM 90.0°F32.2°C 65.2°F18.4°C 44% 1.1 mph WNW1.8 kmh WNW 2.0 mph3.2 kmh 29.97 in1014.9 mb 0.00 in0.0 mm 0.00 in0.0 mm 0.00 in0.0 mm
04:25 PM 90.0°F32.2°C 65.8°F18.8°C 45% Calm Calm 2.0 mph3.2 kmh 29.97 in1014.9 mb 0.00 in0.0 mm 0.00 in0.0 mm 0.00 in0.0 mm
04:30 PM 90.0°F32.2°C 64.5°F18.1°C 43% 2.0 mph SW3.2 kmh SW 4.0 mph6.4 kmh 29.97 in1014.9 mb 0.00 in0.0 mm 0.00 in0.0 mm 0.00 in0.0 mm
04:35 PM 89.8°F32.1°C 65.0°F18.3°C 44% 1.0 mph SW1.6 kmh SW 4.0 mph6.4 kmh 29.97 in1014.9 mb 0.00 in0.0 mm 0.00 in0.0 mm 0.00 in0.0 mm
04:40 PM 89.6°F32.0°C 66.2°F19.0°C 46% 2.0 mph W3.2 kmh W 5.0 mph8.0 kmh 29.97 in1014.9 mb 0.00 in0.0 mm 0.00 in0.0 mm 0.00 in0.0 mm
04:45 PM 88.9°F31.6°C 66.8°F19.3°C 48% 3.5 mph WSW5.6 kmh WSW 8.0 mph12.9 kmh 29.97 in1014.9 mb 0.00 in0.0 mm 0.00 in0.0 mm 0.00 in0.0 mm
04:50 PM 88.6°F31.4°C 66.4°F19.1°C 48% 3.6 mph W5.8 kmh W 8.0 mph12.9 kmh 29.97 in1014.9 mb 0.00 in0.0 mm 0.00 in0.0 mm 0.00 in0.0 mm
04:55 PM 88.6°F31.4°C 67.0°F19.4°C 49% 2.1 mph W3.4 kmh W 8.0 mph12.9 kmh 29.97 in1014.9 mb 0.00 in0.0 mm 0.00 in0.0 mm 0.00 in0.0 mm
05:00 PM 89.2°F31.8°C 67.7°F19.8°C 49% 2.9 mph WSW4.7 kmh WSW 8.0 mph12.9 kmh 29.97 in1014.9 mb 0.00 in0.0 mm 0.00 in0.0 mm 0.00 in0.0 mm
05:05 PM 89.4°F31.9°C 67.1°F19.5°C 48% 2.5 mph NW4.0 kmh NW 8.0 mph12.9 kmh 29.97 in1014.9 mb 0.00 in0.0 mm 0.00 in0.0 mm 0.00 in0.0 mm
05:10 PM 89.4°F31.9°C 67.9°F19.9°C 49% 1.0 mph WSW1.6 kmh WSW 8.0 mph12.9 kmh 29.97 in1014.9 mb 0.00 in0.0 mm 0.00 in0.0 mm 0.00 in0.0 mm
05:15 PM 90.2°F32.3°C 67.2°F19.6°C 47% 1.1 mph SSW1.8 kmh SSW 5.0 mph8.0 kmh 29.96 in1014.6 mb 0.00 in0.0 mm 0.00 in0.0 mm 0.00 in0.0 mm
05:20 PM 90.4°F32.4°C 66.3°F19.1°C 45% 1.8 mph WSW2.9 kmh WSW 8.0 mph12.9 kmh 29.96 in1014.6 mb 0.00 in0.0 mm 0.00 in0.0 mm 0.00 in0.0 mm
05:25 PM 90.9°F32.7°C 66.6°F19.2°C 45% 1.8 mph WSW2.9 kmh WSW 8.0 mph12.9 kmh 29.96 in1014.6 mb 0.00 in0.0 mm 0.00 in0.0 mm 0.00 in0.0 mm
05:30 PM 91.3°F32.9°C 67.7°F19.8°C 46% 1.3 mph SW2.1 kmh SW 8.0 mph12.9 kmh 29.96 in1014.6 mb 0.00 in0.0 mm 0.00 in0.0 mm 0.00 in0.0 mm
05:35 PM 91.8°F33.2°C 66.9°F19.4°C 44% 1.5 mph W2.4 kmh W 5.0 mph8.0 kmh 29.96 in1014.6 mb 0.00 in0.0 mm 0.00 in0.0 mm 0.00 in0.0 mm
05:40 PM 91.8°F33.2°C 66.1°F18.9°C 43% 1.4 mph SW2.3 kmh SW 4.0 mph6.4 kmh 29.96 in1014.6 mb 0.00 in0.0 mm 0.00 in0.0 mm 0.00 in0.0 mm
05:45 PM 91.8°F33.2°C 66.2°F19.0°C 43% 1.6 mph WSW2.6 kmh WSW 5.0 mph8.0 kmh 29.96 in1014.6 mb 0.00 in0.0 mm 0.00 in0.0 mm 0.00 in0.0 mm
05:50 PM 91.7°F33.2°C 67.4°F19.7°C 45% 2.7 mph WSW4.3 kmh WSW 5.0 mph8.0 kmh 29.95 in1014.2 mb 0.00 in0.0 mm 0.00 in0.0 mm 0.00 in0.0 mm
05:55 PM 91.8°F33.2°C 66.9°F19.4°C 44% 2.4 mph SW3.9 kmh SW 8.0 mph12.9 kmh 29.95 in1014.2 mb 0.00 in0.0 mm 0.00 in0.0 mm 0.00 in0.0 mm
06:00 PM 91.6°F33.1°C 64.6°F18.1°C 41% 3.3 mph SW5.3 kmh SW 8.0 mph12.9 kmh 29.96 in1014.6 mb 0.00 in0.0 mm 0.00 in0.0 mm 0.00 in0.0 mm
06:05 PM 91.7°F33.2°C 65.4°F18.6°C 42% 1.8 mph W2.9 kmh W 8.0 mph12.9 kmh 29.96 in1014.6 mb 0.00 in0.0 mm 0.00 in0.0 mm 0.00 in0.0 mm
06:10 PM 91.8°F33.2°C 64.7°F18.2°C 41% 1.0 mph SW1.6 kmh SW 8.0 mph12.9 kmh 29.95 in1014.2 mb 0.00 in0.0 mm 0.00 in0.0 mm 0.00 in0.0 mm
06:14 PM 92.4°F33.6°C 66.7°F19.3°C 43% Calm Calm 7.0 mph11.3 kmh 29.95 in1014.2 mb 0.00 in0.0 mm 0.00 in0.0 mm 0.00 in0.0 mm
06:19 PM 92.4°F33.6°C 66.0°F18.9°C 42% 2.0 mph SW3.2 kmh SW 5.0 mph8.0 kmh 29.95 in1014.2 mb 0.00 in0.0 mm 0.00 in0.0 mm 0.00 in0.0 mm
06:24 PM 92.5°F33.6°C 66.8°F19.3°C 43% 1.0 mph S1.6 kmh S 5.0 mph8.0 kmh 29.95 in1014.2 mb 0.00 in0.0 mm 0.00 in0.0 mm 0.00 in0.0 mm
06:29 PM 92.4°F33.6°C 66.7°F19.3°C 43% 1.3 mph SW2.1 kmh SW 4.0 mph6.4 kmh 29.96 in1014.6 mb 0.00 in0.0 mm 0.00 in0.0 mm 0.00 in0.0 mm
06:34 PM 91.7°F33.2°C 66.1°F18.9°C 43% 2.8 mph SW4.5 kmh SW 7.0 mph11.3 kmh 29.96 in1014.6 mb 0.00 in0.0 mm 0.00 in0.0 mm 0.00 in0.0 mm
06:39 PM 91.5°F33.1°C 67.3°F19.6°C 45% 2.7 mph SSW4.3 kmh SSW 10.0 mph16.1 kmh 29.96 in1014.6 mb 0.00 in0.0 mm 0.00 in0.0 mm 0.00 in0.0 mm
06:44 PM 91.4°F33.0°C 67.2°F19.6°C 45% 1.2 mph SSE1.9 kmh SSE 10.0 mph16.1 kmh 29.96 in1014.6 mb 0.00 in0.0 mm 0.00 in0.0 mm 0.00 in0.0 mm
06:49 PM 91.1°F32.8°C 67.4°F19.7°C 46% 2.9 mph S4.7 kmh S 10.0 mph16.1 kmh 29.96 in1014.6 mb 0.00 in0.0 mm 0.00 in0.0 mm 0.00 in0.0 mm
06:54 PM 90.1°F32.3°C 67.9°F19.9°C 48% 1.9 mph S3.1 kmh S 10.0 mph16.1 kmh 29.96 in1014.6 mb 0.00 in0.0 mm 0.00 in0.0 mm 0.00 in0.0 mm
06:59 PM 89.4°F31.9°C 67.3°F19.6°C 48% 1.8 mph SSW2.9 kmh SSW 8.0 mph12.9 kmh 29.96 in1014.6 mb 0.00 in0.0 mm 0.00 in0.0 mm 0.00 in0.0 mm
07:04 PM 88.5°F31.4°C 67.7°F19.8°C 50% 2.1 mph S3.4 kmh S 6.0 mph9.7 kmh 29.96 in1014.6 mb 0.00 in0.0 mm 0.00 in0.0 mm 0.00 in0.0 mm
07:09 PM 87.9°F31.1°C 67.1°F19.5°C 50% 1.2 mph SSW1.9 kmh SSW 6.0 mph9.7 kmh 29.96 in1014.6 mb 0.00 in0.0 mm 0.00 in0.0 mm 0.00 in0.0 mm
07:14 PM 87.4°F30.8°C 67.2°F19.6°C 51% 1.2 mph SSW1.9 kmh SSW 5.0 mph8.0 kmh 29.96 in1014.6 mb 0.00 in0.0 mm 0.00 in0.0 mm 0.00 in0.0 mm
07:19 PM 86.9°F30.5°C 67.3°F19.6°C 52% Calm Calm 5.0 mph8.0 kmh 29.96 in1014.6 mb 0.00 in0.0 mm 0.00 in0.0 mm 0.00 in0.0 mm
07:24 PM 86.5°F30.3°C 67.0°F19.4°C 52% 1.3 mph SE2.1 kmh SE 3.0 mph4.8 kmh 29.96 in1014.6 mb 0.00 in0.0 mm 0.00 in0.0 mm 0.00 in0.0 mm
07:29 PM 86.1°F30.1°C 67.2°F19.6°C 53% 1.0 mph SW1.6 kmh SW 2.0 mph3.2 kmh 29.96 in1014.6 mb 0.00 in0.0 mm 0.00 in0.0 mm 0.00 in0.0 mm
07:34 PM 85.7°F29.8°C 67.4°F19.7°C 54% 2.4 mph SSW3.9 kmh SSW 5.0 mph8.0 kmh 29.97 in1014.9 mb 0.00 in0.0 mm 0.00 in0.0 mm 0.00 in0.0 mm
07:39 PM 85.4°F29.7°C 68.2°F20.1°C 56% 4.0 mph SW6.4 kmh SW 11.0 mph17.7 kmh 29.97 in1014.9 mb 0.00 in0.0 mm 0.00 in0.0 mm 0.00 in0.0 mm
07:44 PM 82.4°F28.0°C 69.7°F20.9°C 65% 3.9 mph W6.3 kmh W 11.0 mph17.7 kmh 29.98 in1015.2 mb 0.03 in0.8 mm 0.36 in9.1 mm 0.03 in0.8 mm
07:49 PM 79.8°F26.6°C 69.4°F20.8°C 70% 4.0 mph W6.4 kmh W 11.0 mph17.7 kmh 29.98 in1015.2 mb 0.04 in1.0 mm 0.12 in3.0 mm 0.04 in1.0 mm
07:54 PM 79.5°F26.4°C 67.8°F19.9°C 67% 2.2 mph W3.5 kmh W 11.0 mph17.7 kmh 29.98 in1015.2 mb 0.04 in1.0 mm 0.00 in0.0 mm 0.04 in1.0 mm
07:59 PM 79.4°F26.3°C 69.0°F20.6°C 70% 5.1 mph WNW8.2 kmh WNW 12.0 mph19.3 kmh 29.98 in1015.2 mb 0.05 in1.3 mm 0.12 in3.0 mm 0.05 in1.3 mm
08:04 PM 80.1°F26.7°C 68.0°F20.0°C 66% 2.7 mph NW4.3 kmh NW 12.0 mph19.3 kmh 29.98 in1015.2 mb 0.05 in1.3 mm 0.00 in0.0 mm 0.05 in1.3 mm
08:09 PM 80.4°F26.9°C 69.5°F20.8°C 69% 1.0 mph NW1.6 kmh NW 12.0 mph19.3 kmh 29.98 in1015.2 mb 0.06 in1.5 mm 0.12 in3.0 mm 0.06 in1.5 mm
08:14 PM 79.9°F26.6°C 68.4°F20.2°C 68% 1.3 mph NW2.1 kmh NW 12.0 mph19.3 kmh 29.98 in1015.2 mb 0.06 in1.5 mm 0.00 in0.0 mm 0.06 in1.5 mm
08:19 PM 79.0°F26.1°C 69.4°F20.8°C 72% 2.9 mph NNW4.7 kmh NNW 9.0 mph14.5 kmh 29.98 in1015.2 mb 0.06 in1.5 mm 0.00 in0.0 mm 0.06 in1.5 mm
08:24 PM 77.9°F25.5°C 69.5°F20.8°C 75% 1.7 mph NW2.7 kmh NW 6.0 mph9.7 kmh 29.98 in1015.2 mb 0.06 in1.5 mm 0.00 in0.0 mm 0.06 in1.5 mm
08:29 PM 77.8°F25.4°C 69.0°F20.6°C 74% 1.7 mph NW2.7 kmh NW 6.0 mph9.7 kmh 29.98 in1015.2 mb 0.06 in1.5 mm 0.00 in0.0 mm 0.06 in1.5 mm
08:34 PM 78.0°F25.6°C 68.8°F20.4°C 73% 1.0 mph NNE1.6 kmh NNE 6.0 mph9.7 kmh 29.98 in1015.2 mb 0.06 in1.5 mm 0.00 in0.0 mm 0.06 in1.5 mm
08:39 PM 78.3°F25.7°C 68.7°F20.4°C 72% 1.9 mph NW3.1 kmh NW 4.0 mph6.4 kmh 29.98 in1015.2 mb 0.06 in1.5 mm 0.00 in0.0 mm 0.06 in1.5 mm
08:44 PM 78.8°F26.0°C 68.4°F20.2°C 70% Calm Calm 4.0 mph6.4 kmh 29.98 in1015.2 mb 0.03 in0.8 mm 0.00 in0.0 mm 0.06 in1.5 mm
08:49 PM 78.8°F26.0°C 68.4°F20.2°C 70% Calm Calm 4.0 mph6.4 kmh 29.98 in1015.2 mb 0.02 in0.5 mm 0.00 in0.0 mm 0.06 in1.5 mm
08:54 PM 79.2°F26.2°C 68.0°F20.0°C 68% Calm Calm 3.0 mph4.8 kmh 29.98 in1015.2 mb 0.02 in0.5 mm 0.00 in0.0 mm 0.06 in1.5 mm
08:59 PM 79.8°F26.6°C 66.3°F19.1°C 63% Calm Calm 2.0 mph3.2 kmh 29.98 in1015.2 mb 0.01 in0.3 mm 0.00 in0.0 mm 0.06 in1.5 mm
09:04 PM 80.8°F27.1°C 66.3°F19.1°C 61% Calm Calm -- 29.98 in1015.2 mb 0.01 in0.3 mm 0.00 in0.0 mm 0.06 in1.5 mm
09:09 PM 81.8°F27.7°C 66.6°F19.2°C 60% Calm Calm -- 29.98 in1015.2 mb 0.00 in0.0 mm 0.00 in0.0 mm 0.06 in1.5 mm
09:14 PM 82.5°F28.1°C 66.0°F18.9°C 57% Calm Calm -- 29.99 in1015.6 mb 0.00 in0.0 mm 0.00 in0.0 mm 0.06 in1.5 mm
09:19 PM 83.5°F28.6°C 65.8°F18.8°C 55% Calm Calm -- 29.99 in1015.6 mb 0.00 in0.0 mm 0.00 in0.0 mm 0.06 in1.5 mm
09:24 PM 84.0°F28.9°C 66.3°F19.1°C 55% Calm Calm -- 29.99 in1015.6 mb 0.00 in0.0 mm 0.00 in0.0 mm 0.06 in1.5 mm
09:29 PM 83.8°F28.8°C 67.7°F19.8°C 58% 2.2 mph NW3.5 kmh NW 3.0 mph4.8 kmh 30.00 in1015.9 mb 0.00 in0.0 mm 0.00 in0.0 mm 0.06 in1.5 mm
09:34 PM 80.9°F27.2°C 70.8°F21.6°C 71% 2.5 mph NW4.0 kmh NW 7.0 mph11.3 kmh 30.00 in1015.9 mb 0.00 in0.0 mm 0.00 in0.0 mm 0.06 in1.5 mm
09:39 PM 79.4°F26.3°C 70.0°F21.1°C 73% 2.1 mph NW3.4 kmh NW 7.0 mph11.3 kmh 30.00 in1015.9 mb 0.00 in0.0 mm 0.00 in0.0 mm 0.06 in1.5 mm
09:44 PM 78.7°F25.9°C 69.1°F20.6°C 72% 3.6 mph NW5.8 kmh NW 8.0 mph12.9 kmh 30.00 in1015.9 mb 0.00 in0.0 mm 0.00 in0.0 mm 0.06 in1.5 mm
09:49 PM 78.3°F25.7°C 69.5°F20.8°C 74% 2.5 mph NNW4.0 kmh NNW 8.0 mph12.9 kmh 30.01 in1016.3 mb 0.00 in0.0 mm 0.00 in0.0 mm 0.06 in1.5 mm
09:54 PM 77.9°F25.5°C 69.1°F20.6°C 74% 1.8 mph N2.9 kmh N 8.0 mph12.9 kmh 30.01 in1016.3 mb 0.00 in0.0 mm 0.00 in0.0 mm 0.06 in1.5 mm
09:59 PM 77.5°F25.3°C 69.1°F20.6°C 75% 1.8 mph N2.9 kmh N 8.0 mph12.9 kmh 30.01 in1016.3 mb 0.00 in0.0 mm 0.00 in0.0 mm 0.06 in1.5 mm
10:04 PM 77.2°F25.1°C 69.2°F20.7°C 76% 1.7 mph NW2.7 kmh NW 6.0 mph9.7 kmh 30.01 in1016.3 mb 0.00 in0.0 mm 0.00 in0.0 mm 0.06 in1.5 mm
10:09 PM 76.8°F24.9°C 68.8°F20.4°C 76% 2.0 mph NW3.2 kmh NW 6.0 mph9.7 kmh 30.02 in1016.6 mb 0.00 in0.0 mm 0.00 in0.0 mm 0.06 in1.5 mm
10:14 PM 76.5°F24.7°C 68.9°F20.5°C 77% 1.9 mph NW3.1 kmh NW 5.0 mph8.0 kmh 30.02 in1016.6 mb 0.00 in0.0 mm 0.00 in0.0 mm 0.06 in1.5 mm
10:19 PM 76.4°F24.7°C 68.8°F20.4°C 77% 2.4 mph NW3.9 kmh NW 5.0 mph8.0 kmh 30.02 in1016.6 mb 0.00 in0.0 mm 0.00 in0.0 mm 0.06 in1.5 mm
10:24 PM 76.3°F24.6°C 68.7°F20.4°C 77% 2.1 mph NW3.4 kmh NW 5.0 mph8.0 kmh 30.02 in1016.6 mb 0.00 in0.0 mm 0.00 in0.0 mm 0.06 in1.5 mm
10:29 PM 76.2°F24.6°C 68.6°F20.3°C 77% 1.7 mph NNW2.7 kmh NNW 5.0 mph8.0 kmh 30.02 in1016.6 mb 0.00 in0.0 mm 0.00 in0.0 mm 0.06 in1.5 mm
10:34 PM 76.1°F24.5°C 68.7°F20.4°C 78% 1.4 mph NE2.3 kmh NE 5.0 mph8.0 kmh 30.03 in1016.9 mb 0.00 in0.0 mm 0.00 in0.0 mm 0.06 in1.5 mm
10:39 PM 75.7°F24.3°C 68.4°F20.2°C 78% 1.3 mph NW2.1 kmh NW 5.0 mph8.0 kmh 30.03 in1016.9 mb 0.00 in0.0 mm 0.00 in0.0 mm 0.06 in1.5 mm
10:44 PM 75.3°F24.1°C 68.4°F20.2°C 79% 1.2 mph NW1.9 kmh NW 4.0 mph6.4 kmh 30.03 in1016.9 mb 0.00 in0.0 mm 0.00 in0.0 mm 0.06 in1.5 mm
10:49 PM 75.1°F23.9°C 68.3°F20.2°C 79% 1.4 mph NNW2.3 kmh NNW 4.0 mph6.4 kmh 30.03 in1016.9 mb 0.00 in0.0 mm 0.00 in0.0 mm 0.06 in1.5 mm
10:54 PM 75.0°F23.9°C 68.5°F20.3°C 80% 1.5 mph NNE2.4 kmh NNE 4.0 mph6.4 kmh 30.03 in1016.9 mb 0.00 in0.0 mm 0.00 in0.0 mm 0.06 in1.5 mm
10:59 PM 74.9°F23.8°C 68.4°F20.2°C 80% 1.0 mph NNE1.6 kmh NNE 4.0 mph6.4 kmh 30.03 in1016.9 mb 0.00 in0.0 mm 0.00 in0.0 mm 0.06 in1.5 mm
11:04 PM 74.8°F23.8°C 68.3°F20.2°C 80% 1.1 mph NNE1.8 kmh NNE 3.0 mph4.8 kmh 30.03 in1016.9 mb 0.00 in0.0 mm 0.00 in0.0 mm 0.06 in1.5 mm
11:09 PM 74.8°F23.8°C 68.3°F20.2°C 80% 1.2 mph NE1.9 kmh NE 3.0 mph4.8 kmh 30.04 in1017.3 mb 0.00 in0.0 mm 0.00 in0.0 mm 0.06 in1.5 mm
11:13 PM 74.7°F23.7°C 68.2°F20.1°C 80% 2.3 mph NE3.7 kmh NE 6.0 mph9.7 kmh 30.04 in1017.3 mb 0.00 in0.0 mm 0.00 in0.0 mm 0.06 in1.5 mm
11:18 PM 74.8°F23.8°C 68.2°F20.1°C 80% 1.7 mph NE2.7 kmh NE 6.0 mph9.7 kmh 30.04 in1017.3 mb 0.00 in0.0 mm 0.00 in0.0 mm 0.06 in1.5 mm
11:23 PM 74.8°F23.8°C 68.7°F20.4°C 81% 1.9 mph NNE3.1 kmh NNE 6.0 mph9.7 kmh 30.04 in1017.3 mb 0.00 in0.0 mm 0.00 in0.0 mm 0.06 in1.5 mm
11:28 PM 74.7°F23.7°C 68.5°F20.3°C 81% 2.7 mph NNE4.3 kmh NNE 6.0 mph9.7 kmh 30.04 in1017.3 mb 0.00 in0.0 mm 0.00 in0.0 mm 0.06 in1.5 mm
11:33 PM 74.7°F23.7°C 68.6°F20.3°C 81% 1.1 mph NE1.8 kmh NE 5.0 mph8.0 kmh 30.04 in1017.3 mb 0.00 in0.0 mm 0.00 in0.0 mm 0.06 in1.5 mm
11:38 PM 74.6°F23.7°C 68.5°F20.3°C 81% 1.7 mph NE2.7 kmh NE 5.0 mph8.0 kmh 30.04 in1017.3 mb 0.00 in0.0 mm 0.00 in0.0 mm 0.06 in1.5 mm
11:43 PM 74.7°F23.7°C 68.9°F20.5°C 82% 1.9 mph NE3.1 kmh NE 5.0 mph8.0 kmh 30.04 in1017.3 mb 0.00 in0.0 mm 0.00 in0.0 mm 0.06 in1.5 mm
11:48 PM 74.7°F23.7°C 68.9°F20.5°C 82% 1.7 mph NE2.7 kmh NE 4.0 mph6.4 kmh 30.04 in1017.3 mb 0.00 in0.0 mm 0.00 in0.0 mm 0.06 in1.5 mm
11:53 PM 74.7°F23.7°C 68.9°F20.5°C 82% 1.9 mph NE3.1 kmh NE 5.0 mph8.0 kmh 30.04 in1017.3 mb 0.00 in0.0 mm 0.00 in0.0 mm 0.06 in1.5 mm
11:58 PM 74.6°F23.7°C 68.8°F20.4°C 82% 1.2 mph NE1.9 kmh NE 5.0 mph8.0 kmh 30.04 in1017.3 mb 0.00 in0.0 mm 0.00 in0.0 mm 0.06 in1.5 mm